Cape Cod — WBK3243 — position and weather

sailwx.info

Track history (hours):
 
Tides and Currents Weather Stations Pressure Air Temp Water Temp Dewpoint Dewpoint Depression Visibility Wind Speed Wind Dir Waves Ship Positions

Cape Cod

Owner: MORAN TOWING CORPORATION, New Canaan, CT. More information available from US FCC via Universal Licensing System and Coast Guard Vessel Documentation Center.

Last reported at 2016-Dec-11 13:33 UTC. Time now 2016-Dec-11 14:01 UTC.
Position N 39°56' W 075°08'.

Length 33 m; draft 4.8 m.

Type: Tug. MMSI: 366939770.

Date/timePositionNaut miles runAvg speedWind from/ knotsBaromVisibWave heightAir tempDewpointWater temp
2016-Dec-11 13:33N 39°56' W 075°08'3 3.1
2016-Dec-11 12:34N 39°53' W 075°11'0 0.0
2016-Dec-11 11:33N 39°53' W 075°11'0 0.0
2016-Dec-11 10:33N 39°53' W 075°11'0 0.0
2016-Dec-11 09:33N 39°53' W 075°11'0 0.0
2016-Dec-11 08:33N 39°53' W 075°11'0 0.0
2016-Dec-11 07:33N 39°53' W 075°11'0 0.0
2016-Dec-11 06:33N 39°53' W 075°11'0 0.0
2016-Dec-11 05:33N 39°53' W 075°11'2 1.6
2016-Dec-11 04:33N 39°53' W 075°09'2 1.5
2016-Dec-11 03:33N 39°53' W 075°11'6 5.9
2016-Dec-11 02:34N 39°58' W 075°07'2 2.4
2016-Dec-11 01:34N 39°56' W 075°08'5 5.2
2016-Dec-11 00:33N 39°52' W 075°13'9 9.2
2016-Dec-10 23:34N 39°49' W 075°24'1110.9
2016-Dec-10 22:34N 39°40' W 075°32'10 9.6
2016-Dec-10 21:33N 39°30' W 075°33'9 8.9
2016-Dec-10 20:32N 39°22' W 075°28'17 3.3
2016-Dec-10 15:28N 39°09' W 075°15'1314.7
2016-Dec-10 14:34N 39°20' W 075°25'1312.7
2016-Dec-10 13:33N 39°31' W 075°33'1110.9
2016-Dec-10 12:33N 39°41' W 075°31'1110.7
2016-Dec-10 11:33N 39°50' W 075°22'10 9.6
2016-Dec-10 10:33N 39°53' W 075°11'0 0.0
2016-Dec-10 09:33N 39°53' W 075°11'0 0.0
2016-Dec-10 08:33N 39°53' W 075°11'0 0.0
2016-Dec-10 07:33N 39°53' W 075°11'0 0.0
2016-Dec-10 06:33N 39°53' W 075°11'0 0.0
2016-Dec-10 05:33N 39°53' W 075°11'0 0.0
2016-Dec-10 04:33N 39°53' W 075°11'0 0.0
2016-Dec-10 03:33N 39°53' W 075°11'0 0.0
2016-Dec-10 02:33N 39°53' W 075°11'0 0.0
2016-Dec-10 01:33N 39°53' W 075°11'0 0.0
2016-Dec-10 00:33N 39°53' W 075°11'0 0.0
2016-Dec-09 23:33N 39°53' W 075°11'6 6.3
2016-Dec-09 22:33N 39°51' W 075°18'1212.4
2016-Dec-09 21:33N 39°43' W 075°30'0 0.3
2016-Dec-09 20:33N 39°43' W 075°31'1 1.3
2016-Dec-09 19:33N 39°44' W 075°30'1312.6
2016-Dec-09 18:33N 39°51' W 075°16'5 5.1
2016-Dec-09 17:34N 39°53' W 075°11'0 0.0
2016-Dec-09 16:15N 39°53' W 075°11'0 0.0
2016-Dec-09 15:33N 39°53' W 075°11'0 0.0
2016-Dec-09 14:32N 39°53' W 075°11'0 0.0
2016-Dec-09 13:33N 39°53' W 075°11'0 0.0
2016-Dec-09 12:33N 39°53' W 075°11'2 2.2
2016-Dec-09 11:34N 39°54' W 075°08'0 0.1
2016-Dec-09 10:34N 39°54' W 075°08'2 2.1
2016-Dec-09 09:34N 39°53' W 075°11'0 0.0
2016-Dec-09 08:34N 39°53' W 075°11'0 0.0
2016-Dec-09 07:34N 39°53' W 075°11'0 0.0
2016-Dec-09 06:34N 39°53' W 075°11'0 0.0
2016-Dec-09 05:34N 39°53' W 075°11'0 0.0
2016-Dec-09 04:34N 39°53' W 075°11'0 0.0
2016-Dec-09 03:34N 39°53' W 075°11'3 2.7
2016-Dec-09 02:34N 39°55' W 075°08'4 4.1
2016-Dec-09 01:33N 39°59' W 075°06'5 5.0
2016-Dec-09 00:34N 39°54' W 075°08'1 0.7
2016-Dec-08 23:33N 39°54' W 075°08'1 0.6
2016-Dec-08 22:34N 39°54' W 075°08'2 2.1
2016-Dec-08 21:34N 39°53' W 075°11'0 0.0
2016-Dec-08 20:34N 39°53' W 075°11'0 0.0
2016-Dec-08 19:33N 39°53' W 075°11'0 0.0
2016-Dec-08 18:34N 39°53' W 075°11'0 0.0
2016-Dec-08 17:34N 39°53' W 075°11'0 0.0
2016-Dec-08 16:34N 39°53' W 075°11'0 0.0
2016-Dec-08 15:34N 39°53' W 075°11'4 3.9
2016-Dec-08 14:33N 39°57' W 075°08'1 0.6
2016-Dec-08 13:33N 39°57' W 075°08'2 2.3
2016-Dec-08 12:33N 39°59' W 075°06'0 0.0
2016-Dec-08 11:33N 39°59' W 075°06'3 2.6
2016-Dec-08 10:33N 39°57' W 075°08'4 4.2
2016-Dec-08 09:33N 39°53' W 075°10'1 0.8
2016-Dec-08 08:34N 39°53' W 075°11'0 0.0
2016-Dec-08 07:33N 39°53' W 075°11'0 0.0
2016-Dec-08 06:33N 39°53' W 075°11'0 0.0
2016-Dec-08 05:33N 39°53' W 075°11'0 0.0
2016-Dec-08 04:33N 39°53' W 075°11'0 0.0
2016-Dec-08 03:33N 39°53' W 075°11'0 0.0
2016-Dec-08 02:33N 39°53' W 075°11'0 0.0
2016-Dec-08 01:34N 39°53' W 075°11'0 0.0
2016-Dec-08 00:33N 39°53' W 075°11'0 0.0
2016-Dec-07 23:33N 39°53' W 075°11'0 0.0
2016-Dec-07 22:34N 39°53' W 075°11'0 0.0
2016-Dec-07 21:33N 39°53' W 075°11'0 0.0
2016-Dec-07 20:33N 39°53' W 075°11'0 0.0
2016-Dec-07 19:33N 39°53' W 075°11'0 0.0
2016-Dec-07 18:34N 39°53' W 075°11'0 0.3
2016-Dec-07 17:33N 39°53' W 075°10'2 1.7
2016-Dec-07 16:33N 39°54' W 075°08'2 1.9
2016-Dec-07 15:34N 39°53' W 075°11'0 0.0
2016-Dec-07 14:33N 39°53' W 075°11'0 0.0
2016-Dec-07 13:33N 39°53' W 075°11'0 0.0
2016-Dec-07 12:34N 39°53' W 075°11'0 0.0
2016-Dec-07 11:33N 39°53' W 075°11'0 0.0
2016-Dec-07 10:33N 39°53' W 075°11'0 0.0
2016-Dec-07 09:33N 39°53' W 075°11'0 0.0
2016-Dec-07 08:33N 39°53' W 075°11'0 0.0
2016-Dec-07 07:33N 39°53' W 075°11'0 0.0
2016-Dec-07 06:34N 39°53' W 075°11'0 0.0
2016-Dec-07 05:33N 39°53' W 075°11'0 0.0
2016-Dec-07 04:33N 39°53' W 075°11'0 0.0
2016-Dec-07 03:33N 39°53' W 075°11'0 0.0
2016-Dec-07 02:33N 39°53' W 075°11'0 0.0
2016-Dec-07 01:33N 39°53' W 075°11'0 0.0
2016-Dec-07 00:34N 39°53' W 075°11'0 0.0
2016-Dec-06 23:33N 39°53' W 075°11'3 2.7
2016-Dec-06 22:33N 39°54' W 075°08'1 1.4
2016-Dec-06 21:33N 39°53' W 075°08'2 1.7
2016-Dec-06 20:33N 39°53' W 075°11'0 0.0
2016-Dec-06 18:33N 39°53' W 075°11'0 0.0
2016-Dec-06 17:33N 39°53' W 075°11'0 0.0
2016-Dec-06 16:33N 39°53' W 075°11'0 0.0
2016-Dec-06 15:33N 39°53' W 075°11'0 0.0
2016-Dec-06 14:33N 39°53' W 075°11'1 0.8
2016-Dec-06 13:33N 39°54' W 075°12'1 0.8
2016-Dec-06 12:33N 39°53' W 075°11'0 0.0
2016-Dec-06 11:34N 39°53' W 075°11'0 0.0
2016-Dec-06 10:33N 39°53' W 075°11'0 0.0
2016-Dec-06 09:33N 39°53' W 075°11'0 0.0
2016-Dec-06 08:33N 39°53' W 075°11'4 4.3
2016-Dec-06 07:33N 39°51' W 075°15'4 3.8
2016-Dec-06 06:33N 39°51' W 075°20'1 1.0
2016-Dec-06 05:33N 39°51' W 075°19'7 6.9
2016-Dec-06 04:33N 39°53' W 075°11'0 0.0
2016-Dec-06 03:33N 39°53' W 075°11'0 0.0
2016-Dec-06 02:33N 39°53' W 075°11'0 0.0
2016-Dec-06 01:33N 39°53' W 075°11'1 0.7
2016-Dec-06 00:33N 39°53' W 075°11'0 0.3
2016-Dec-05 23:33N 39°53' W 075°12'3 2.7
2016-Dec-05 22:33N 39°53' W 075°08'10 9.6
2016-Dec-05 21:33N 39°51' W 075°20'4 3.6
2016-Dec-05 20:33N 39°49' W 075°24'4 3.5
2016-Dec-05 19:32N 39°51' W 075°20'0 0.0
2016-Dec-05 18:17N 39°51' W 075°20'0 0.0
2016-Dec-05 17:33N 39°51' W 075°20'0 0.0
2016-Dec-05 16:33N 39°51' W 075°20'2 2.1
2016-Dec-05 15:33N 39°51' W 075°18'6 5.8
2016-Dec-05 14:33N 39°53' W 075°11'0 0.0
2016-Dec-05 13:33N 39°53' W 075°11'0 0.0
2016-Dec-05 12:33N 39°53' W 075°11'0 0.0
2016-Dec-05 11:33N 39°53' W 075°11'0 0.0
2016-Dec-05 10:33N 39°53' W 075°11'0 0.0
2016-Dec-05 09:33N 39°53' W 075°11'0 0.0
2016-Dec-05 08:33N 39°53' W 075°11'0 0.0
2016-Dec-05 07:33N 39°53' W 075°11'0 0.0
2016-Dec-05 06:33N 39°53' W 075°11'6 6.0
2016-Dec-05 05:33N 39°51' W 075°18'3 2.5
2016-Dec-05 04:33N 39°50' W 075°21'1 0.7
2016-Dec-05 03:33N 39°51' W 075°20'8 7.7
2016-Dec-05 02:34N 39°53' W 075°11'0 0.2
2016-Dec-05 01:33N 39°53' W 075°11'0 0.0
2016-Dec-05 00:34N 39°53' W 075°11'0 0.0
2016-Dec-04 23:33N 39°53' W 075°11'1 1.3
2016-Dec-04 22:34N 39°53' W 075°09'9 9.0
2016-Dec-04 21:33N 40°01' W 075°03'8 1.9
2016-Dec-04 17:20N 40°05' W 074°53'7 8.7
2016-Dec-04 16:34N 40°01' W 075°01'8 7.9
2016-Dec-04 15:33N 39°56' W 075°08'3 3.1
2016-Dec-04 14:34N 39°53' W 075°11'3 3.4
2016-Dec-04 13:33N 39°51' W 075°14'9 8.9
2016-Dec-04 12:34N 39°48' W 075°25'1 0.8
2016-Dec-04 11:33N 39°48' W 075°26'0 0.4
2016-Dec-04 10:33N 39°48' W 075°26'0 0.0
2016-Dec-04 09:34N 39°48' W 075°26'0 0.0
2016-Dec-04 08:34N 39°48' W 075°26'6 6.4
2016-Dec-04 07:33N 39°43' W 075°31'0 0.2
2016-Dec-04 06:33N 39°43' W 075°31'0 0.0
2016-Dec-04 05:33N 39°43' W 075°31'0 0.0
2016-Dec-04 04:33N 39°43' W 075°31'0 0.0
2016-Dec-04 03:33N 39°43' W 075°31'1 0.8
2016-Dec-04 02:33N 39°43' W 075°31'9 8.6
2016-Dec-04 01:34N 39°35' W 075°35'1 0.6
2016-Dec-04 00:34N 39°35' W 075°35'6 6.2
2016-Dec-03 23:34N 39°41' W 075°32'3 2.6
2016-Dec-03 22:33N 39°43' W 075°31'0 0.5
2016-Dec-03 21:34N 39°43' W 075°31'0 0.2
2016-Dec-03 20:33N 39°43' W 075°31'1111.4
2016-Dec-03 19:33N 39°32' W 075°33'1312.7
2016-Dec-03 18:33N 39°20' W 075°25'12 3.0
2016-Dec-03 14:33N 39°11' W 075°16'9 8.7
2016-Dec-03 13:33N 39°18' W 075°23'1010.3
2016-Dec-03 12:33N 39°26' W 075°32'1110.5
2016-Dec-03 11:33N 39°36' W 075°34'1010.2
2016-Dec-03 10:33N 39°45' W 075°29'1110.6
2016-Dec-03 09:33N 39°51' W 075°17'7 7.3
2016-Dec-03 08:33N 39°53' W 075°08'5 5.0
2016-Dec-03 07:33N 39°58' W 075°06'2 2.2
2016-Dec-03 06:33N 39°57' W 075°08'6 5.8
2016-Dec-03 05:32N 39°52' W 075°13'1 0.8
2016-Dec-03 04:33N 39°52' W 075°12'4 4.3
2016-Dec-03 03:33N 39°55' W 075°07'1 0.9
2016-Dec-03 02:33N 39°54' W 075°08'0 0.0
2016-Dec-03 01:33N 39°54' W 075°08'5 5.1
2016-Dec-03 00:33N 39°59' W 075°06'13 1.8
2016-Dec-02 17:29N 40°05' W 074°52'1111.8
2016-Dec-02 16:33N 39°60' W 075°04'8 8.3
2016-Dec-02 15:33N 39°53' W 075°11'1 1.4
2016-Dec-02 14:33N 39°53' W 075°09'7 6.9
2016-Dec-02 13:33N 39°59' W 075°04'1 0.6
2016-Dec-02 12:33N 39°59' W 075°05'0 0.0
2016-Dec-02 11:33N 39°59' W 075°05'0 0.0
2016-Dec-02 10:33N 39°59' W 075°05'0 0.0
2016-Dec-02 09:33N 39°59' W 075°05'7 7.2
2016-Dec-02 08:33N 39°53' W 075°10'6 5.9
2016-Dec-02 07:33N 39°58' W 075°07'0 0.1
2016-Dec-02 06:33N 39°58' W 075°07'7 6.9
2016-Dec-02 05:33N 39°53' W 075°12'1111.1
2016-Dec-02 04:33N 39°48' W 075°25'1110.8
2016-Dec-02 03:33N 39°39' W 075°33'10 9.9
2016-Dec-02 02:33N 39°29' W 075°34'9 9.4
2016-Dec-02 01:33N 39°21' W 075°27'9 2.1
2016-Dec-01 21:33N 39°15' W 075°19'1515.5
2016-Dec-01 20:33N 39°27' W 075°33'1312.9
2016-Dec-01 19:33N 39°39' W 075°32'1111.3
2016-Dec-01 18:33N 39°49' W 075°24'9 9.2
2016-Dec-01 17:33N 39°52' W 075°13'5 5.4
2016-Dec-01 16:33N 39°56' W 075°08'3 3.2
2016-Dec-01 15:33N 39°59' W 075°06'2 1.7
2016-Dec-01 14:33N 39°58' W 075°08'  
Track history (hours):
 
Tides and Currents Weather Stations Pressure Air Temp Water Temp Dewpoint Dewpoint Depression Visibility Wind Speed Wind Dir Waves Ship Positions

Cape Cod

Owner: MORAN TOWING CORPORATION, New Canaan, CT. More information available from US FCC via Universal Licensing System and Coast Guard Vessel Documentation Center.

Last reported at 2016-Dec-11 13:33 UTC. Time now 2016-Dec-11 14:01 UTC.
Position N 39°56' W 075°08'.

Length 33 m; draft 4.8 m.

Type: Tug. MMSI: 366939770.

Date/timePositionNaut miles runAvg speedWind from/ knotsBaromVisibWave heightAir tempDewpointWater temp
2016-Dec-11 13:33N 39°56' W 075°08'3 3.1
2016-Dec-11 12:34N 39°53' W 075°11'0 0.0
2016-Dec-11 11:33N 39°53' W 075°11'0 0.0
2016-Dec-11 10:33N 39°53' W 075°11'0 0.0
2016-Dec-11 09:33N 39°53' W 075°11'0 0.0
2016-Dec-11 08:33N 39°53' W 075°11'0 0.0
2016-Dec-11 07:33N 39°53' W 075°11'0 0.0
2016-Dec-11 06:33N 39°53' W 075°11'0 0.0
2016-Dec-11 05:33N 39°53' W 075°11'2 1.6
2016-Dec-11 04:33N 39°53' W 075°09'2 1.5
2016-Dec-11 03:33N 39°53' W 075°11'6 5.9
2016-Dec-11 02:34N 39°58' W 075°07'2 2.4
2016-Dec-11 01:34N 39°56' W 075°08'5 5.2
2016-Dec-11 00:33N 39°52' W 075°13'9 9.2
2016-Dec-10 23:34N 39°49' W 075°24'1110.9
2016-Dec-10 22:34N 39°40' W 075°32'10 9.6
2016-Dec-10 21:33N 39°30' W 075°33'9 8.9
2016-Dec-10 20:32N 39°22' W 075°28'17 3.3
2016-Dec-10 15:28N 39°09' W 075°15'1314.7
2016-Dec-10 14:34N 39°20' W 075°25'1312.7
2016-Dec-10 13:33N 39°31' W 075°33'1110.9
2016-Dec-10 12:33N 39°41' W 075°31'1110.7
2016-Dec-10 11:33N 39°50' W 075°22'10 9.6
2016-Dec-10 10:33N 39°53' W 075°11'0 0.0
2016-Dec-10 09:33N 39°53' W 075°11'0 0.0
2016-Dec-10 08:33N 39°53' W 075°11'0 0.0
2016-Dec-10 07:33N 39°53' W 075°11'0 0.0
2016-Dec-10 06:33N 39°53' W 075°11'0 0.0
2016-Dec-10 05:33N 39°53' W 075°11'0 0.0
2016-Dec-10 04:33N 39°53' W 075°11'0 0.0
2016-Dec-10 03:33N 39°53' W 075°11'0 0.0
2016-Dec-10 02:33N 39°53' W 075°11'0 0.0
2016-Dec-10 01:33N 39°53' W 075°11'0 0.0
2016-Dec-10 00:33N 39°53' W 075°11'0 0.0
2016-Dec-09 23:33N 39°53' W 075°11'6 6.3
2016-Dec-09 22:33N 39°51' W 075°18'1212.4
2016-Dec-09 21:33N 39°43' W 075°30'0 0.3
2016-Dec-09 20:33N 39°43' W 075°31'1 1.3
2016-Dec-09 19:33N 39°44' W 075°30'1312.6
2016-Dec-09 18:33N 39°51' W 075°16'5 5.1
2016-Dec-09 17:34N 39°53' W 075°11'0 0.0
2016-Dec-09 16:15N 39°53' W 075°11'0 0.0
2016-Dec-09 15:33N 39°53' W 075°11'0 0.0
2016-Dec-09 14:32N 39°53' W 075°11'0 0.0
2016-Dec-09 13:33N 39°53' W 075°11'0 0.0
2016-Dec-09 12:33N 39°53' W 075°11'2 2.2
2016-Dec-09 11:34N 39°54' W 075°08'0 0.1
2016-Dec-09 10:34N 39°54' W 075°08'2 2.1
2016-Dec-09 09:34N 39°53' W 075°11'0 0.0
2016-Dec-09 08:34N 39°53' W 075°11'0 0.0
2016-Dec-09 07:34N 39°53' W 075°11'0 0.0
2016-Dec-09 06:34N 39°53' W 075°11'0 0.0
2016-Dec-09 05:34N 39°53' W 075°11'0 0.0
2016-Dec-09 04:34N 39°53' W 075°11'0 0.0
2016-Dec-09 03:34N 39°53' W 075°11'3 2.7
2016-Dec-09 02:34N 39°55' W 075°08'4 4.1
2016-Dec-09 01:33N 39°59' W 075°06'5 5.0
2016-Dec-09 00:34N 39°54' W 075°08'1 0.7
2016-Dec-08 23:33N 39°54' W 075°08'1 0.6
2016-Dec-08 22:34N 39°54' W 075°08'2 2.1
2016-Dec-08 21:34N 39°53' W 075°11'0 0.0
2016-Dec-08 20:34N 39°53' W 075°11'0 0.0
2016-Dec-08 19:33N 39°53' W 075°11'0 0.0
2016-Dec-08 18:34N 39°53' W 075°11'0 0.0
2016-Dec-08 17:34N 39°53' W 075°11'0 0.0
2016-Dec-08 16:34N 39°53' W 075°11'0 0.0
2016-Dec-08 15:34N 39°53' W 075°11'4 3.9
2016-Dec-08 14:33N 39°57' W 075°08'1 0.6
2016-Dec-08 13:33N 39°57' W 075°08'2 2.3
2016-Dec-08 12:33N 39°59' W 075°06'0 0.0
2016-Dec-08 11:33N 39°59' W 075°06'3 2.6
2016-Dec-08 10:33N 39°57' W 075°08'4 4.2
2016-Dec-08 09:33N 39°53' W 075°10'1 0.8
2016-Dec-08 08:34N 39°53' W 075°11'0 0.0
2016-Dec-08 07:33N 39°53' W 075°11'0 0.0
2016-Dec-08 06:33N 39°53' W 075°11'0 0.0
2016-Dec-08 05:33N 39°53' W 075°11'0 0.0
2016-Dec-08 04:33N 39°53' W 075°11'0 0.0
2016-Dec-08 03:33N 39°53' W 075°11'0 0.0
2016-Dec-08 02:33N 39°53' W 075°11'0 0.0
2016-Dec-08 01:34N 39°53' W 075°11'0 0.0
2016-Dec-08 00:33N 39°53' W 075°11'0 0.0
2016-Dec-07 23:33N 39°53' W 075°11'0 0.0
2016-Dec-07 22:34N 39°53' W 075°11'0 0.0
2016-Dec-07 21:33N 39°53' W 075°11'0 0.0
2016-Dec-07 20:33N 39°53' W 075°11'0 0.0
2016-Dec-07 19:33N 39°53' W 075°11'0 0.0
2016-Dec-07 18:34N 39°53' W 075°11'0 0.3
2016-Dec-07 17:33N 39°53' W 075°10'2 1.7
2016-Dec-07 16:33N 39°54' W 075°08'2 1.9
2016-Dec-07 15:34N 39°53' W 075°11'0 0.0
2016-Dec-07 14:33N 39°53' W 075°11'0 0.0
2016-Dec-07 13:33N 39°53' W 075°11'0 0.0
2016-Dec-07 12:34N 39°53' W 075°11'0 0.0
2016-Dec-07 11:33N 39°53' W 075°11'0 0.0
2016-Dec-07 10:33N 39°53' W 075°11'0 0.0
2016-Dec-07 09:33N 39°53' W 075°11'0 0.0
2016-Dec-07 08:33N 39°53' W 075°11'0 0.0
2016-Dec-07 07:33N 39°53' W 075°11'0 0.0
2016-Dec-07 06:34N 39°53' W 075°11'0 0.0
2016-Dec-07 05:33N 39°53' W 075°11'0 0.0
2016-Dec-07 04:33N 39°53' W 075°11'0 0.0
2016-Dec-07 03:33N 39°53' W 075°11'0 0.0
2016-Dec-07 02:33N 39°53' W 075°11'0 0.0
2016-Dec-07 01:33N 39°53' W 075°11'0 0.0
2016-Dec-07 00:34N 39°53' W 075°11'0 0.0
2016-Dec-06 23:33N 39°53' W 075°11'3 2.7
2016-Dec-06 22:33N 39°54' W 075°08'1 1.4
2016-Dec-06 21:33N 39°53' W 075°08'2 1.7
2016-Dec-06 20:33N 39°53' W 075°11'0 0.0
2016-Dec-06 18:33N 39°53' W 075°11'0 0.0
2016-Dec-06 17:33N 39°53' W 075°11'0 0.0
2016-Dec-06 16:33N 39°53' W 075°11'0 0.0
2016-Dec-06 15:33N 39°53' W 075°11'0 0.0
2016-Dec-06 14:33N 39°53' W 075°11'1 0.8
2016-Dec-06 13:33N 39°54' W 075°12'1 0.8
2016-Dec-06 12:33N 39°53' W 075°11'0 0.0
2016-Dec-06 11:34N 39°53' W 075°11'0 0.0
2016-Dec-06 10:33N 39°53' W 075°11'0 0.0
2016-Dec-06 09:33N 39°53' W 075°11'0 0.0
2016-Dec-06 08:33N 39°53' W 075°11'4 4.3
2016-Dec-06 07:33N 39°51' W 075°15'4 3.8
2016-Dec-06 06:33N 39°51' W 075°20'1 1.0
2016-Dec-06 05:33N 39°51' W 075°19'7 6.9
2016-Dec-06 04:33N 39°53' W 075°11'0 0.0
2016-Dec-06 03:33N 39°53' W 075°11'0 0.0
2016-Dec-06 02:33N 39°53' W 075°11'0 0.0
2016-Dec-06 01:33N 39°53' W 075°11'1 0.7
2016-Dec-06 00:33N 39°53' W 075°11'0 0.3
2016-Dec-05 23:33N 39°53' W 075°12'3 2.7
2016-Dec-05 22:33N 39°53' W 075°08'10 9.6
2016-Dec-05 21:33N 39°51' W 075°20'4 3.6
2016-Dec-05 20:33N 39°49' W 075°24'4 3.5
2016-Dec-05 19:32N 39°51' W 075°20'0 0.0
2016-Dec-05 18:17N 39°51' W 075°20'0 0.0
2016-Dec-05 17:33N 39°51' W 075°20'0 0.0
2016-Dec-05 16:33N 39°51' W 075°20'2 2.1
2016-Dec-05 15:33N 39°51' W 075°18'6 5.8
2016-Dec-05 14:33N 39°53' W 075°11'0 0.0
2016-Dec-05 13:33N 39°53' W 075°11'0 0.0
2016-Dec-05 12:33N 39°53' W 075°11'0 0.0
2016-Dec-05 11:33N 39°53' W 075°11'0 0.0
2016-Dec-05 10:33N 39°53' W 075°11'0 0.0
2016-Dec-05 09:33N 39°53' W 075°11'0 0.0
2016-Dec-05 08:33N 39°53' W 075°11'0 0.0
2016-Dec-05 07:33N 39°53' W 075°11'0 0.0
2016-Dec-05 06:33N 39°53' W 075°11'6 6.0
2016-Dec-05 05:33N 39°51' W 075°18'3 2.5
2016-Dec-05 04:33N 39°50' W 075°21'1 0.7
2016-Dec-05 03:33N 39°51' W 075°20'8 7.7
2016-Dec-05 02:34N 39°53' W 075°11'0 0.2
2016-Dec-05 01:33N 39°53' W 075°11'0 0.0
2016-Dec-05 00:34N 39°53' W 075°11'0 0.0
2016-Dec-04 23:33N 39°53' W 075°11'1 1.3
2016-Dec-04 22:34N 39°53' W 075°09'9 9.0
2016-Dec-04 21:33N 40°01' W 075°03'8 1.9
2016-Dec-04 17:20N 40°05' W 074°53'7 8.7
2016-Dec-04 16:34N 40°01' W 075°01'8 7.9
2016-Dec-04 15:33N 39°56' W 075°08'3 3.1
2016-Dec-04 14:34N 39°53' W 075°11'3 3.4
2016-Dec-04 13:33N 39°51' W 075°14'9 8.9
2016-Dec-04 12:34N 39°48' W 075°25'1 0.8
2016-Dec-04 11:33N 39°48' W 075°26'0 0.4
2016-Dec-04 10:33N 39°48' W 075°26'0 0.0
2016-Dec-04 09:34N 39°48' W 075°26'0 0.0
2016-Dec-04 08:34N 39°48' W 075°26'6 6.4
2016-Dec-04 07:33N 39°43' W 075°31'0 0.2
2016-Dec-04 06:33N 39°43' W 075°31'0 0.0
2016-Dec-04 05:33N 39°43' W 075°31'0 0.0
2016-Dec-04 04:33N 39°43' W 075°31'0 0.0
2016-Dec-04 03:33N 39°43' W 075°31'1 0.8
2016-Dec-04 02:33N 39°43' W 075°31'9 8.6
2016-Dec-04 01:34N 39°35' W 075°35'1 0.6
2016-Dec-04 00:34N 39°35' W 075°35'6 6.2
2016-Dec-03 23:34N 39°41' W 075°32'3 2.6
2016-Dec-03 22:33N 39°43' W 075°31'0 0.5
2016-Dec-03 21:34N 39°43' W 075°31'0 0.2
2016-Dec-03 20:33N 39°43' W 075°31'1111.4
2016-Dec-03 19:33N 39°32' W 075°33'1312.7
2016-Dec-03 18:33N 39°20' W 075°25'12 3.0
2016-Dec-03 14:33N 39°11' W 075°16'9 8.7
2016-Dec-03 13:33N 39°18' W 075°23'1010.3
2016-Dec-03 12:33N 39°26' W 075°32'1110.5
2016-Dec-03 11:33N 39°36' W 075°34'1010.2
2016-Dec-03 10:33N 39°45' W 075°29'1110.6
2016-Dec-03 09:33N 39°51' W 075°17'7 7.3
2016-Dec-03 08:33N 39°53' W 075°08'5 5.0
2016-Dec-03 07:33N 39°58' W 075°06'2 2.2
2016-Dec-03 06:33N 39°57' W 075°08'6 5.8
2016-Dec-03 05:32N 39°52' W 075°13'1 0.8
2016-Dec-03 04:33N 39°52' W 075°12'4 4.3
2016-Dec-03 03:33N 39°55' W 075°07'1 0.9
2016-Dec-03 02:33N 39°54' W 075°08'0 0.0
2016-Dec-03 01:33N 39°54' W 075°08'5 5.1
2016-Dec-03 00:33N 39°59' W 075°06'13 1.8
2016-Dec-02 17:29N 40°05' W 074°52'1111.8
2016-Dec-02 16:33N 39°60' W 075°04'8 8.3
2016-Dec-02 15:33N 39°53' W 075°11'1 1.4
2016-Dec-02 14:33N 39°53' W 075°09'7 6.9
2016-Dec-02 13:33N 39°59' W 075°04'1 0.6
2016-Dec-02 12:33N 39°59' W 075°05'0 0.0
2016-Dec-02 11:33N 39°59' W 075°05'0 0.0
2016-Dec-02 10:33N 39°59' W 075°05'0 0.0
2016-Dec-02 09:33N 39°59' W 075°05'7 7.2
2016-Dec-02 08:33N 39°53' W 075°10'6 5.9
2016-Dec-02 07:33N 39°58' W 075°07'0 0.1
2016-Dec-02 06:33N 39°58' W 075°07'7 6.9
2016-Dec-02 05:33N 39°53' W 075°12'1111.1
2016-Dec-02 04:33N 39°48' W 075°25'1110.8
2016-Dec-02 03:33N 39°39' W 075°33'10 9.9
2016-Dec-02 02:33N 39°29' W 075°34'9 9.4
2016-Dec-02 01:33N 39°21' W 075°27'9 2.1
2016-Dec-01 21:33N 39°15' W 075°19'1515.5
2016-Dec-01 20:33N 39°27' W 075°33'1312.9
2016-Dec-01 19:33N 39°39' W 075°32'1111.3
2016-Dec-01 18:33N 39°49' W 075°24'9 9.2
2016-Dec-01 17:33N 39°52' W 075°13'5 5.4
2016-Dec-01 16:33N 39°56' W 075°08'3 3.2
2016-Dec-01 15:33N 39°59' W 075°06'2 1.7
2016-Dec-01 14:33N 39°58' W 075°08'  

Dump ship's entire track history